Terminal Aerodrome Forecast
Issued by NWS Riverton, WY

Home | Current Version | Previous Version | Text Only | Print | Product List | Glossary On
Versions: 1 2 3 4 5 6 7 8 9 10 11 12 13
632
FTUS45 KRIW 231120
TAFRIW
TAF
KRIW 231120Z 2312/2412 32009KT P6SM SCT080
     FM231600 36006KT P6SM SCT070
     FM240200 30006KT P6SM FEW070
     FM241000 24005KT P6SM FEW080=

USA.gov is the U.S. government's official web portal to all federal, state and local government web resources and services.